createdAt,value
2022-09-28T00:05:38.828Z,281.72240802675583
2022-09-28T00:12:07.744Z,264.61204013377926
2022-09-28T00:18:37.448Z,291.44816053511704
2022-09-28T00:34:10.807Z,309.2341137123746
2022-09-28T00:41:49.086Z,315.2909698996655
2022-09-28T00:53:40.083Z,335.0535117056856
2022-09-28T01:00:08.616Z,349.6588628762542
2022-09-28T01:12:00.468Z,344.60535117056855
2022-09-28T01:18:29.741Z,354.8628762541806
2022-09-28T01:25:04.714Z,318.1304347826087
2022-09-28T01:31:33.443Z,326.4247491638796
2022-09-28T01:38:01.266Z,339.6588628762542
2022-09-28T01:44:29.504Z,349.4113712374582
2022-09-28T01:50:57.493Z,365.428093645485
2022-09-28T01:57:25.672Z,370.96989966555185
2022-09-28T02:03:53.672Z,384.11371237458195
2022-09-28T02:17:25.531Z,414.47157190635454
2022-09-28T02:24:02.433Z,432.1170568561873
2022-09-28T02:36:33.420Z,490.9230769230769
2022-09-28T02:43:01.740Z,466.8595317725752
2022-09-28T02:49:29.772Z,444.89966555183946
2022-09-28T02:55:57.931Z,459.74247491638795
2022-09-28T03:03:09.209Z,480.3344481605351
2022-09-28T03:10:50.352Z,473.46822742474916
2022-09-28T03:25:06.181Z,520.2307692307693
2022-09-28T03:31:34.464Z,518.8528428093646
2022-09-28T03:38:02.754Z,531.3913043478261
2022-09-28T03:44:31.640Z,525.8494983277592
2022-09-28T03:54:15.957Z,569.190635451505
2022-09-28T04:00:43.931Z,581.2240802675585
2022-09-28T04:12:53.629Z,558.2809364548496
2022-09-28T04:19:21.101Z,596.1304347826087
2022-09-28T04:29:11.252Z,522.8428093645485
2022-09-28T04:36:39.900Z,535.7157190635452
2022-09-28T04:43:07.673Z,506.5418060200669
2022-09-28T04:49:35.679Z,443.3478260869565
2022-09-28T04:56:02.507Z,446.4581939799331
2022-09-28T05:03:29.584Z,424.8528428093646
2022-09-28T05:15:39.979Z,347.54515050167225
2022-09-28T05:22:08.172Z,379.9397993311037
2022-09-28T05:34:29.980Z,371.82274247491637
2022-09-28T05:40:57.818Z,385.9163879598662
2022-09-28T05:51:23.519Z,390.98327759197326
2022-09-28T05:57:49.976Z,362.3344481605351
2022-09-28T06:04:17.242Z,508.12709030100336
2022-09-28T06:10:44.725Z,300.32107023411373
2022-09-28T06:17:11.181Z,208.66889632107024
2022-09-28T06:23:48.987Z,215.93979933110367
2022-09-28T06:36:36.033Z,265.39799331103677
2022-09-28T06:44:47.305Z,218.41471571906354
2022-09-28T06:51:14.838Z,223.80267558528428
2022-09-28T06:57:42.472Z,230.46822742474916
2022-09-28T07:04:10.265Z,246.3846153846154
2022-09-28T07:10:37.790Z,253.97993311036788
2022-09-28T07:20:16.367Z,309.0133779264214
2022-09-28T07:26:52.348Z,280.7892976588629
2022-09-28T07:33:18.782Z,314.82274247491637
2022-09-28T07:39:46.048Z,231.0133779264214
2022-09-28T07:49:11.436Z,195.12040133779263
2022-09-28T08:03:44.582Z,145.82608695652175
2022-09-28T08:10:12.059Z,165.9933110367893
2022-09-28T08:23:56.500Z,141.10033444816054
2022-09-28T08:30:24.992Z,149.74916387959865
2022-09-28T08:36:52.988Z,138.18729096989966
2022-09-28T08:44:03.610Z,148.1705685618729
2022-09-28T08:50:33.199Z,136.29765886287626
2022-09-28T08:57:00.928Z,160.75585284280936
2022-09-28T09:07:41.978Z,273.11036789297657
2022-09-28T09:14:09.625Z,250.0702341137124
2022-09-28T09:21:01.438Z,221.35451505016724
2022-09-28T09:27:49.568Z,261.18394648829434
2022-09-28T09:34:18.386Z,340.5953177257525
2022-09-28T09:47:12.360Z,403.2173913043478
2022-09-28T09:53:41.050Z,474.54515050167225
2022-09-28T10:09:54.709Z,639.2006688963211
2022-09-28T10:16:24.932Z,553.6086956521739
2022-09-28T10:29:03.613Z,647.4515050167224
2022-09-28T11:00:12.401Z,715.2441471571906
2022-09-28T11:06:41.317Z,706.7959866220735
2022-09-28T11:13:09.415Z,687.7023411371238
2022-09-28T11:19:37.522Z,732.7926421404683
2022-09-28T11:31:45.914Z,663.4816053511705
2022-09-28T11:45:32.569Z,683.5685618729098
2022-09-28T11:56:18.034Z,740.38127090301
2022-09-28T12:02:47.023Z,686.9866220735786
2022-09-28T12:10:07.895Z,664.3444816053511
2022-09-28T12:17:04.318Z,599.7892976588629
2022-09-28T12:23:42.624Z,601.7859531772575
2022-09-28T12:30:11.652Z,623.7056856187291
2022-09-28T12:36:41.994Z,618.4080267558528
2022-09-28T12:48:37.869Z,669.5050167224081
2022-09-28T12:58:38.270Z,659.1872909698997
2022-09-28T13:06:22.590Z,647.4648829431438
2022-09-28T13:14:56.410Z,593.2207357859531
2022-09-28T13:24:14.810Z,539.752508361204
2022-09-28T13:33:03.915Z,543.7558528428094
2022-09-28T13:39:34.308Z,525.1371237458194
2022-09-28T13:50:43.090Z,482.96321070234114
2022-09-28T13:57:12.417Z,488.9130434782609
2022-09-28T14:03:42.217Z,447.66220735785953
2022-09-28T14:16:29.739Z,334.04682274247494
2022-09-28T14:22:58.977Z,318.0200668896321
2022-09-28T14:29:29.122Z,328.74916387959865
2022-09-28T14:35:57.857Z,320.6488294314381
2022-09-28T14:42:27.248Z,320.60200668896323
2022-09-28T14:52:19.850Z,309.5752508361204
2022-09-28T15:03:13.395Z,292.16053511705684
2022-09-28T15:13:42.202Z,265.3444816053512
2022-09-28T15:20:13.146Z,287.55183946488296
2022-09-28T15:28:34.929Z,267.68896321070235
2022-09-28T15:41:55.987Z,258.27090301003346
2022-09-28T15:48:26.488Z,272.5752508361204
2022-09-28T15:54:56.439Z,314.314381270903
2022-09-28T16:01:26.695Z,334.0635451505017
2022-09-28T16:07:56.699Z,319.0033444816053
2022-09-28T16:14:26.656Z,297.23745819397993
2022-09-28T16:20:57.012Z,292.4448160535117
2022-09-28T16:28:10.486Z,286.9397993311037
2022-09-28T16:34:40.335Z,307.66220735785953
2022-09-28T16:43:56.475Z,309.41471571906357
2022-09-28T16:50:26.818Z,352.123745819398
2022-09-28T16:59:03.108Z,457.24749163879596
2022-09-28T17:05:33.131Z,603.989966555184
2022-09-28T17:18:21.502Z,727.8327759197324
2022-09-28T17:27:21.474Z,654.9732441471572
2022-09-28T17:33:51.508Z,624.2909698996656
2022-09-28T17:40:21.517Z,633.0869565217391
2022-09-28T17:46:51.163Z,737.7491638795987
2022-09-28T17:53:21.441Z,790.6622073578595
2022-09-28T18:00:44.917Z,732.3478260869565
2022-09-28T18:25:51.197Z,749.5986622073578
2022-09-28T18:32:21.558Z,735.7157190635452
2022-09-28T18:38:51.709Z,763.2040133779265
2022-09-28T18:49:43.585Z,784.8026755852843
2022-09-28T18:56:17.233Z,812.1505016722408
2022-09-28T19:06:04.995Z,821.1705685618729
2022-09-28T19:12:36.645Z,816.9096989966555
2022-09-28T19:19:09.973Z,812.8996655518395
2022-09-28T19:25:54.372Z,831.7625418060201
2022-09-28T19:32:33.252Z,806.7658862876254
2022-09-28T19:39:08.818Z,858.571906354515
2022-09-28T19:52:46.448Z,856.3846153846154
2022-09-28T19:59:21.053Z,850.6153846153846
2022-09-28T20:05:54.775Z,829.7491638795987
2022-09-28T20:12:28.680Z,791.3511705685619
2022-09-28T20:28:28.645Z,778.3511705685619
2022-09-28T20:40:59.348Z,796.1973244147157
2022-09-28T20:47:33.594Z,782.9698996655518
2022-09-28T20:54:06.994Z,757.4214046822742
2022-09-28T21:00:41.400Z,754.0200668896321
2022-09-28T21:34:15.591Z,757.2207357859531
2022-09-28T21:40:50.544Z,737.5250836120401
2022-09-28T21:47:25.938Z,733.9197324414715
2022-09-28T21:55:29.583Z,730.8896321070234
2022-09-28T22:02:04.576Z,740.876254180602
2022-09-28T22:08:39.240Z,734.6555183946489
2022-09-28T22:25:25.700Z,829.3578595317725
2022-09-28T22:31:58.474Z,814.4849498327759
2022-09-28T22:38:32.055Z,763.8963210702341
2022-09-28T22:45:05.369Z,737.38127090301
2022-09-28T22:51:39.712Z,706.4983277591973
2022-09-28T22:58:45.554Z,681.6020066889632
2022-09-28T23:05:20.830Z,723.3244147157191
2022-09-28T23:15:48.677Z,699.5551839464883
2022-09-28T23:22:23.541Z,701.9799331103679
2022-09-28T23:29:09.530Z,692.2040133779265
2022-09-28T23:36:05.238Z,712.180602006689
2022-09-28T23:56:40.619Z,709.1471571906354
